首页
METAR-TAF:

METAR-TAF

机场 :

基韋斯特, 佛罗里达州, 美国

纬度: 24-34-46N, 经度: 081-41-02W, 海拔: 1米

当前天气观测

该预报发布于41分钟前的13:53 UTC
风速13节,风向东北
温度 22°C
湿度 73%
气压 1022 hPa
能見度: 16.1公里
少量云层高于7000英尺

METAR: KNQX 231353Z 04013KT 10SM FEW070 22/17 A3017 RMK AO2 SLP215 T02220167 $

时间: 09:34 (14:34 UTC)

预报

预报有效从23日的 07点(UTC)到 24日的 07点(UTC)
风速11节,风向东北
能见度10公里或以上
多云层高于6000英尺
从 23日的 1300点(UTC)
风速13节,风向东转东北,有时为20节阵风
能见度10公里或以上
散云层高于3500英尺
多云层高于6000英尺
多云层高于25000英尺
从 23日的 1900点(UTC)
风速13节,风向,有时为20节阵风
能见度10公里或以上
散云层高于3500英尺
多云层高于6000英尺
多云层高于25000英尺
从 24日的 0200点(UTC)
风速10节,风向
能見度: 2311
散云层高于3500英尺
散云层高于6000英尺
多云层高于25000英尺

TAF: KNQX 2307/2407 05011KT 9999 BKN060 QNH3007INS FM231300 06013G20KT 9999 SCT035 BKN060 BKN250 QNH3005INS FM231900 08013G20KT 9999 SCT035 BKN060 BKN250 QNH3007INS FM240200 09010KT 9999 SCT035 SCT060 BKN250 QNH3001INS AUTOMATED SENSOR 2307 TIL 2311 T21/2310Z T24/2319Z FN00085

超过4000个机场的气象观测和天气预报(METAR&TAF报告)。

可查询的气象台以黄色和红色小点在地图上表示。

将鼠标移到小点上方,可查看气象台名称。

然后点击查看天气观测和预报。

如需切换地图:点击带黑十字的绿色按钮放大地图;点击带横线的绿色按钮缩小地图;或者点击绿色箭头查看邻近地区的地图。


METAR-TAF: